DLH9KK EDDB-EDDF
Flight info
| Callsign | DLH9KK |
|---|---|
| Flight time | 0h 45m |
| Altitude | 23000 |
| Route | KISUC1B KISUC Z117 ODLUN/N0431F240 DCT ORTAG/N0417F220 T177 ODIPI/N0412F210 T157 KERAX KERAX5A |
| Aircraft | A346/H-SDE2E3FGHIJ3J4J5M1RWXY/LB1D1 |
Departure
| Time | 2026-05-05 18:57 |
|---|---|
| Airport | Berlin Brandenburg Airport (EDDB) |
Arrival
| Time | 2026-05-05 19:42 |
|---|---|
| Airport | Frankfurt Main Airport (EDDF) |
| Time | Latitude | Longitude | Altitude | Speed | Heading |
|---|---|---|---|---|---|
| 2026-05-05 18:21 | 52.36121 | 13.50294 | 163 ft | 0 kts | 249° |
| 2026-05-05 18:44 | 52.36129 | 13.50328 | 163 ft | 4 kts | 249° |
| 2026-05-05 18:44 | 52.36137 | 13.50362 | 163 ft | 3 kts | 248° |
| 2026-05-05 18:45 | 52.36148 | 13.50395 | 163 ft | 4 kts | 225° |
| 2026-05-05 18:45 | 52.36164 | 13.50412 | 163 ft | 4 kts | 190° |
| 2026-05-05 18:45 | 52.36182 | 13.50408 | 163 ft | 3 kts | 159° |
| 2026-05-05 18:45 | 52.36207 | 13.50393 | 163 ft | 4 kts | 159° |
| 2026-05-05 18:46 | 52.36217 | 13.50386 | 163 ft | 0 kts | 159° |
| 2026-05-05 18:48 | 52.36210 | 13.50391 | 163 ft | 3 kts | 159° |
| 2026-05-05 18:49 | 52.36163 | 13.50420 | 163 ft | 12 kts | 159° |
| 2026-05-05 18:49 | 52.36056 | 13.50489 | 163 ft | 19 kts | 159° |
| 2026-05-05 18:49 | 52.35923 | 13.50574 | 163 ft | 21 kts | 159° |
| 2026-05-05 18:49 | 52.35870 | 13.50608 | 163 ft | 1 kts | 159° |
| 2026-05-05 18:50 | 52.35868 | 13.50609 | 163 ft | 0 kts | 159° |
| 2026-05-05 18:51 | 52.35863 | 13.50612 | 163 ft | 5 kts | 159° |
| 2026-05-05 18:51 | 52.35794 | 13.50654 | 163 ft | 13 kts | 159° |
| 2026-05-05 18:51 | 52.35711 | 13.50687 | 163 ft | 11 kts | 200° |
| 2026-05-05 18:51 | 52.35660 | 13.50560 | 163 ft | 15 kts | 248° |
| 2026-05-05 18:52 | 52.35617 | 13.50378 | 163 ft | 19 kts | 249° |
| 2026-05-05 18:52 | 52.35566 | 13.50162 | 163 ft | 22 kts | 249° |
| 2026-05-05 18:52 | 52.35508 | 13.49918 | 163 ft | 24 kts | 249° |
| 2026-05-05 18:52 | 52.35444 | 13.49649 | 163 ft | 26 kts | 248° |
| 2026-05-05 18:53 | 52.35376 | 13.49360 | 163 ft | 28 kts | 249° |
| 2026-05-05 18:53 | 52.35303 | 13.49054 | 163 ft | 30 kts | 249° |
| 2026-05-05 18:53 | 52.35226 | 13.48731 | 163 ft | 31 kts | 249° |
| 2026-05-05 18:53 | 52.35147 | 13.48394 | 163 ft | 32 kts | 249° |
| 2026-05-05 18:54 | 52.35064 | 13.48049 | 163 ft | 33 kts | 249° |
| 2026-05-05 18:54 | 52.34980 | 13.47695 | 163 ft | 34 kts | 249° |
| 2026-05-05 18:54 | 52.34901 | 13.47365 | 163 ft | 29 kts | 249° |
| 2026-05-05 18:54 | 52.34833 | 13.47072 | 163 ft | 25 kts | 249° |
| 2026-05-05 18:55 | 52.34781 | 13.46851 | 163 ft | 11 kts | 249° |
| 2026-05-05 18:55 | 52.34721 | 13.46774 | 163 ft | 13 kts | 176° |
| 2026-05-05 18:55 | 52.34626 | 13.46828 | 163 ft | 15 kts | 158° |
| 2026-05-05 18:55 | 52.34566 | 13.46932 | 163 ft | 14 kts | 83° |
| 2026-05-05 18:56 | 52.34586 | 13.47028 | 163 ft | 9 kts | 69° |
| 2026-05-05 18:56 | 52.34654 | 13.47309 | 163 ft | 59 kts | 69° |
| 2026-05-05 18:56 | 52.34892 | 13.48307 | 163 ft | 125 kts | 69° |
| 2026-05-05 18:56 | 52.35275 | 13.49933 | 177 ft | 177 kts | 68° |
| 2026-05-05 18:57 | 52.35726 | 13.51852 | 818 ft | 180 kts | 71° |
| 2026-05-05 18:57 | 52.35747 | 13.53878 | 1555 ft | 186 kts | 112° |
| 2026-05-05 18:57 | 52.34844 | 13.55411 | 2241 ft | 198 kts | 146° |
| 2026-05-05 18:57 | 52.33539 | 13.56319 | 2768 ft | 212 kts | 166° |
| 2026-05-05 18:58 | 52.32029 | 13.56279 | 3324 ft | 225 kts | 194° |
| 2026-05-05 18:58 | 52.30682 | 13.54821 | 3662 ft | 247 kts | 228° |
| 2026-05-05 18:58 | 52.29530 | 13.52541 | 3984 ft | 272 kts | 229° |
| 2026-05-05 18:58 | 52.28187 | 13.50297 | 4657 ft | 284 kts | 223° |
| 2026-05-05 18:59 | 52.26746 | 13.48023 | 5499 ft | 290 kts | 231° |
| 2026-05-05 18:59 | 52.25909 | 13.45099 | 6553 ft | 284 kts | 262° |
| 2026-05-05 18:59 | 52.25900 | 13.41906 | 7708 ft | 279 kts | 275° |
| 2026-05-05 18:59 | 52.26076 | 13.38725 | 8639 ft | 283 kts | 275° |
| 2026-05-05 19:00 | 52.26207 | 13.35489 | 9513 ft | 288 kts | 273° |
| 2026-05-05 19:00 | 52.26271 | 13.32187 | 10452 ft | 291 kts | 271° |
| 2026-05-05 19:00 | 52.26293 | 13.28876 | 11454 ft | 292 kts | 270° |
| 2026-05-05 19:00 | 52.26299 | 13.25543 | 12500 ft | 291 kts | 268° |
| 2026-05-05 19:01 | 52.26015 | 13.22265 | 13488 ft | 292 kts | 253° |
| 2026-05-05 19:01 | 52.25234 | 13.19180 | 14283 ft | 300 kts | 241° |
| 2026-05-05 19:01 | 52.24151 | 13.16202 | 14752 ft | 317 kts | 238° |
| 2026-05-05 19:01 | 52.22997 | 13.13005 | 15188 ft | 335 kts | 240° |
| 2026-05-05 19:02 | 52.21843 | 13.09598 | 15691 ft | 351 kts | 241° |
| 2026-05-05 19:02 | 52.20634 | 13.06004 | 16068 ft | 369 kts | 241° |
| 2026-05-05 19:02 | 52.19363 | 13.02249 | 16432 ft | 386 kts | 241° |
| 2026-05-05 19:02 | 52.18047 | 12.98384 | 17089 ft | 393 kts | 241° |
| 2026-05-05 19:03 | 52.16705 | 12.94461 | 17908 ft | 396 kts | 240° |
| 2026-05-05 19:03 | 52.15356 | 12.90529 | 18722 ft | 399 kts | 240° |
| 2026-05-05 19:03 | 52.13994 | 12.86567 | 19481 ft | 402 kts | 240° |
| 2026-05-05 19:03 | 52.12616 | 12.82568 | 20198 ft | 406 kts | 240° |
| 2026-05-05 19:04 | 52.11236 | 12.78575 | 20898 ft | 410 kts | 240° |
| 2026-05-05 19:04 | 52.09830 | 12.74511 | 21624 ft | 413 kts | 240° |
| 2026-05-05 19:04 | 52.08411 | 12.70420 | 22287 ft | 416 kts | 240° |
| 2026-05-05 19:04 | 52.06978 | 12.66298 | 22698 ft | 418 kts | 239° |
| 2026-05-05 19:05 | 52.05544 | 12.62177 | 22802 ft | 418 kts | 239° |
| 2026-05-05 19:05 | 52.04115 | 12.58078 | 22804 ft | 417 kts | 239° |
| 2026-05-05 19:05 | 52.02682 | 12.53977 | 22808 ft | 417 kts | 239° |
| 2026-05-05 19:05 | 52.01235 | 12.49844 | 22808 ft | 418 kts | 239° |
| 2026-05-05 19:06 | 51.99801 | 12.45751 | 22806 ft | 418 kts | 239° |
| 2026-05-05 19:06 | 51.98356 | 12.41633 | 22812 ft | 419 kts | 239° |
| 2026-05-05 19:06 | 51.96906 | 12.37510 | 22808 ft | 419 kts | 239° |
| 2026-05-05 19:06 | 51.95457 | 12.33397 | 22812 ft | 419 kts | 239° |
| 2026-05-05 19:07 | 51.94020 | 12.29327 | 22808 ft | 419 kts | 239° |
| 2026-05-05 19:07 | 51.92572 | 12.25230 | 22808 ft | 419 kts | 239° |
| 2026-05-05 19:07 | 51.91116 | 12.21117 | 22809 ft | 419 kts | 239° |
| 2026-05-05 19:07 | 51.89652 | 12.16988 | 22817 ft | 419 kts | 239° |
| 2026-05-05 19:08 | 51.88197 | 12.12891 | 22818 ft | 419 kts | 239° |
| 2026-05-05 19:08 | 51.86739 | 12.08791 | 22819 ft | 419 kts | 239° |
| 2026-05-05 19:08 | 51.85282 | 12.04702 | 22818 ft | 419 kts | 239° |
| 2026-05-05 19:08 | 51.83820 | 12.00604 | 22815 ft | 419 kts | 239° |
| 2026-05-05 19:09 | 51.82361 | 11.96524 | 22815 ft | 419 kts | 239° |
| 2026-05-05 19:09 | 51.80896 | 11.92430 | 22818 ft | 419 kts | 239° |
| 2026-05-05 19:09 | 51.79433 | 11.88351 | 22816 ft | 419 kts | 239° |
| 2026-05-05 19:09 | 51.77965 | 11.84265 | 22821 ft | 420 kts | 239° |
| 2026-05-05 19:10 | 51.76516 | 11.80233 | 22817 ft | 420 kts | 239° |
| 2026-05-05 19:10 | 51.75043 | 11.76147 | 22818 ft | 420 kts | 238° |
| 2026-05-05 19:10 | 51.73568 | 11.72059 | 22821 ft | 420 kts | 238° |
| 2026-05-05 19:10 | 51.72097 | 11.67988 | 22820 ft | 419 kts | 238° |
| 2026-05-05 19:11 | 51.70623 | 11.63919 | 22821 ft | 420 kts | 238° |
| 2026-05-05 19:11 | 51.69134 | 11.59811 | 22821 ft | 420 kts | 238° |
| 2026-05-05 19:11 | 51.67649 | 11.55821 | 22811 ft | 420 kts | 235° |
| 2026-05-05 19:11 | 51.65792 | 11.52186 | 22817 ft | 420 kts | 227° |
| 2026-05-05 19:12 | 51.63748 | 11.48772 | 22821 ft | 420 kts | 225° |
| 2026-05-05 19:12 | 51.61692 | 11.45417 | 22817 ft | 421 kts | 225° |
| 2026-05-05 19:12 | 51.59641 | 11.42046 | 22817 ft | 421 kts | 225° |
| 2026-05-05 19:12 | 51.57603 | 11.38660 | 22819 ft | 422 kts | 225° |
| 2026-05-05 19:13 | 51.55566 | 11.35251 | 22817 ft | 422 kts | 226° |
| 2026-05-05 19:13 | 51.53528 | 11.31823 | 22817 ft | 422 kts | 226° |
| 2026-05-05 19:13 | 51.51521 | 11.28439 | 22818 ft | 423 kts | 226° |
| 2026-05-05 19:13 | 51.49491 | 11.25014 | 22817 ft | 422 kts | 226° |
| 2026-05-05 19:14 | 51.47468 | 11.21599 | 22816 ft | 423 kts | 226° |
| 2026-05-05 19:14 | 51.45439 | 11.18176 | 22821 ft | 423 kts | 226° |
| 2026-05-05 19:14 | 51.43407 | 11.14752 | 22816 ft | 423 kts | 226° |
| 2026-05-05 19:14 | 51.41372 | 11.11324 | 22812 ft | 424 kts | 225° |
| 2026-05-05 19:15 | 51.39332 | 11.07895 | 22813 ft | 424 kts | 225° |
| 2026-05-05 19:15 | 51.37293 | 11.04468 | 22812 ft | 425 kts | 225° |
| 2026-05-05 19:15 | 51.35250 | 11.01041 | 22811 ft | 425 kts | 225° |
| 2026-05-05 19:15 | 51.33210 | 10.97624 | 22809 ft | 425 kts | 225° |
| 2026-05-05 19:16 | 51.31164 | 10.94202 | 22810 ft | 426 kts | 225° |
| 2026-05-05 19:16 | 51.29117 | 10.90781 | 22793 ft | 423 kts | 225° |
| 2026-05-05 19:16 | 51.27096 | 10.87410 | 22469 ft | 419 kts | 225° |
| 2026-05-05 19:16 | 51.25069 | 10.84033 | 22146 ft | 421 kts | 225° |
| 2026-05-05 19:17 | 51.23065 | 10.80699 | 21843 ft | 420 kts | 225° |
| 2026-05-05 19:17 | 51.21110 | 10.77451 | 21811 ft | 420 kts | 225° |
| 2026-05-05 19:17 | 51.19114 | 10.74139 | 21806 ft | 421 kts | 225° |
| 2026-05-05 19:17 | 51.17109 | 10.70817 | 21803 ft | 422 kts | 225° |
| 2026-05-05 19:18 | 51.15071 | 10.67444 | 21801 ft | 422 kts | 225° |
| 2026-05-05 19:18 | 51.13031 | 10.64072 | 21801 ft | 422 kts | 225° |
| 2026-05-05 19:18 | 51.10993 | 10.60708 | 21800 ft | 423 kts | 225° |
| 2026-05-05 19:18 | 51.08952 | 10.57344 | 21801 ft | 423 kts | 225° |
| 2026-05-05 19:19 | 51.06903 | 10.53971 | 21800 ft | 423 kts | 225° |
| 2026-05-05 19:19 | 51.04856 | 10.50605 | 21800 ft | 423 kts | 225° |
| 2026-05-05 19:19 | 51.02799 | 10.47230 | 21797 ft | 423 kts | 225° |
| 2026-05-05 19:19 | 51.00777 | 10.43915 | 21799 ft | 424 kts | 225° |
| 2026-05-05 19:20 | 50.98707 | 10.40525 | 21800 ft | 424 kts | 225° |
| 2026-05-05 19:20 | 50.96647 | 10.37157 | 21800 ft | 424 kts | 225° |
| 2026-05-05 19:20 | 50.94585 | 10.33790 | 21801 ft | 424 kts | 225° |
| 2026-05-05 19:20 | 50.92526 | 10.30432 | 21800 ft | 425 kts | 224° |
| 2026-05-05 19:21 | 50.90462 | 10.27072 | 21801 ft | 425 kts | 224° |
| 2026-05-05 19:21 | 50.88397 | 10.23714 | 21799 ft | 426 kts | 224° |
| 2026-05-05 19:21 | 50.86326 | 10.20351 | 21801 ft | 426 kts | 224° |
| 2026-05-05 19:21 | 50.84241 | 10.16970 | 21799 ft | 427 kts | 224° |
| 2026-05-05 19:22 | 50.82187 | 10.13644 | 21801 ft | 427 kts | 224° |
| 2026-05-05 19:22 | 50.80104 | 10.10274 | 21800 ft | 428 kts | 224° |
| 2026-05-05 19:22 | 50.78020 | 10.06908 | 21795 ft | 428 kts | 224° |
| 2026-05-05 19:22 | 50.75933 | 10.03546 | 21389 ft | 427 kts | 224° |
| 2026-05-05 19:23 | 50.73858 | 10.00208 | 20836 ft | 423 kts | 224° |
| 2026-05-05 19:23 | 50.71804 | 9.96907 | 20275 ft | 419 kts | 224° |
| 2026-05-05 19:23 | 50.70456 | 9.94740 | 19914 ft | 417 kts | 224° |
| 2026-05-05 19:23 | 50.68428 | 9.91487 | 19357 ft | 413 kts | 224° |
| 2026-05-05 19:24 | 50.65762 | 9.87217 | 18619 ft | 409 kts | 224° |
| 2026-05-05 19:24 | 50.63772 | 9.84035 | 18064 ft | 406 kts | 224° |
| 2026-05-05 19:24 | 50.62436 | 9.81901 | 17691 ft | 404 kts | 224° |
| 2026-05-05 19:24 | 50.60469 | 9.78761 | 17137 ft | 400 kts | 224° |
| 2026-05-05 19:25 | 50.58517 | 9.75650 | 16580 ft | 396 kts | 224° |
| 2026-05-05 19:25 | 50.56584 | 9.72572 | 16030 ft | 392 kts | 224° |
| 2026-05-05 19:25 | 50.54697 | 9.69570 | 15481 ft | 388 kts | 224° |
| 2026-05-05 19:25 | 50.52807 | 9.66568 | 14930 ft | 384 kts | 224° |
| 2026-05-05 19:26 | 50.50931 | 9.63593 | 14378 ft | 381 kts | 224° |
| 2026-05-05 19:26 | 50.49122 | 9.60588 | 13810 ft | 378 kts | 229° |
| 2026-05-05 19:26 | 50.47649 | 9.57167 | 13258 ft | 376 kts | 239° |
| 2026-05-05 19:26 | 50.46604 | 9.53412 | 12705 ft | 374 kts | 249° |
| 2026-05-05 19:27 | 50.45837 | 9.49519 | 12169 ft | 371 kts | 251° |
| 2026-05-05 19:27 | 50.45117 | 9.45645 | 11603 ft | 368 kts | 252° |
| 2026-05-05 19:27 | 50.44403 | 9.41807 | 11069 ft | 364 kts | 252° |
| 2026-05-05 19:27 | 50.43688 | 9.37997 | 10810 ft | 359 kts | 252° |
| 2026-05-05 19:28 | 50.42973 | 9.34221 | 10805 ft | 359 kts | 252° |
| 2026-05-05 19:28 | 50.42266 | 9.30499 | 10457 ft | 353 kts | 252° |
| 2026-05-05 19:28 | 50.41558 | 9.26795 | 9759 ft | 352 kts | 251° |
| 2026-05-05 19:28 | 50.40806 | 9.23224 | 9343 ft | 336 kts | 249° |
| 2026-05-05 19:29 | 50.40045 | 9.19927 | 9231 ft | 314 kts | 249° |
| 2026-05-05 19:29 | 50.39320 | 9.16794 | 9096 ft | 295 kts | 249° |
| 2026-05-05 19:29 | 50.38635 | 9.13837 | 8941 ft | 282 kts | 249° |
| 2026-05-05 19:29 | 50.37971 | 9.10976 | 8654 ft | 280 kts | 249° |
| 2026-05-05 19:30 | 50.37298 | 9.08089 | 8105 ft | 281 kts | 249° |
| 2026-05-05 19:30 | 50.36629 | 9.05224 | 7837 ft | 275 kts | 249° |
| 2026-05-05 19:30 | 50.35977 | 9.02430 | 7809 ft | 273 kts | 249° |
| 2026-05-05 19:30 | 50.35324 | 8.99632 | 7804 ft | 274 kts | 249° |
| 2026-05-05 19:31 | 50.34670 | 8.96831 | 7803 ft | 274 kts | 249° |
| 2026-05-05 19:31 | 50.34007 | 8.94035 | 7799 ft | 273 kts | 246° |
| 2026-05-05 19:31 | 50.33086 | 8.91460 | 7741 ft | 268 kts | 233° |
| 2026-05-05 19:31 | 50.31858 | 8.89309 | 7515 ft | 259 kts | 221° |
| 2026-05-05 19:32 | 50.30401 | 8.87766 | 7308 ft | 250 kts | 200° |
| 2026-05-05 19:32 | 50.28707 | 8.87483 | 7090 ft | 244 kts | 170° |
| 2026-05-05 19:32 | 50.27202 | 8.88560 | 6831 ft | 244 kts | 139° |
| 2026-05-05 19:32 | 50.26260 | 8.90780 | 6812 ft | 251 kts | 108° |
| 2026-05-05 19:33 | 50.25958 | 8.93470 | 6818 ft | 252 kts | 96° |
| 2026-05-05 19:33 | 50.25837 | 8.96210 | 6808 ft | 252 kts | 94° |
| 2026-05-05 19:33 | 50.25751 | 8.98955 | 6799 ft | 252 kts | 94° |
| 2026-05-05 19:33 | 50.25672 | 9.01714 | 6802 ft | 252 kts | 94° |
| 2026-05-05 19:34 | 50.25578 | 9.04468 | 6799 ft | 251 kts | 100° |
| 2026-05-05 19:34 | 50.24953 | 9.06964 | 6787 ft | 247 kts | 131° |
| 2026-05-05 19:34 | 50.23641 | 9.08564 | 6798 ft | 242 kts | 162° |
| 2026-05-05 19:35 | 50.20536 | 9.07782 | 6803 ft | 236 kts | 223° |
| 2026-05-05 19:35 | 50.19431 | 9.05888 | 6774 ft | 231 kts | 231° |
| 2026-05-05 19:35 | 50.18453 | 9.03888 | 6430 ft | 233 kts | 233° |
| 2026-05-05 19:35 | 50.17463 | 9.01867 | 6092 ft | 234 kts | 231° |
| 2026-05-05 19:36 | 50.16435 | 8.99935 | 5824 ft | 233 kts | 230° |
| 2026-05-05 19:36 | 50.15423 | 8.97969 | 5544 ft | 231 kts | 236° |
| 2026-05-05 19:36 | 50.14634 | 8.95819 | 5370 ft | 224 kts | 245° |
| 2026-05-05 19:36 | 50.14092 | 8.93575 | 5235 ft | 216 kts | 252° |
| 2026-05-05 19:37 | 50.13649 | 8.91382 | 5103 ft | 206 kts | 252° |
| 2026-05-05 19:37 | 50.13210 | 8.89293 | 4998 ft | 194 kts | 251° |
| 2026-05-05 19:37 | 50.12775 | 8.87352 | 4987 ft | 188 kts | 250° |
| 2026-05-05 19:37 | 50.12326 | 8.85433 | 4880 ft | 188 kts | 250° |
| 2026-05-05 19:38 | 50.11866 | 8.83521 | 4612 ft | 187 kts | 250° |
| 2026-05-05 19:38 | 50.11405 | 8.81631 | 4348 ft | 186 kts | 250° |
| 2026-05-05 19:38 | 50.10941 | 8.79741 | 4099 ft | 186 kts | 249° |
| 2026-05-05 19:38 | 50.10476 | 8.77863 | 3841 ft | 186 kts | 250° |
| 2026-05-05 19:39 | 50.10013 | 8.75976 | 3574 ft | 186 kts | 250° |
| 2026-05-05 19:39 | 50.09555 | 8.74096 | 3323 ft | 185 kts | 250° |
| 2026-05-05 19:39 | 50.09098 | 8.72207 | 3056 ft | 185 kts | 250° |
| 2026-05-05 19:39 | 50.08645 | 8.70327 | 2791 ft | 185 kts | 250° |
| 2026-05-05 19:40 | 50.08196 | 8.68455 | 2522 ft | 184 kts | 250° |
| 2026-05-05 19:40 | 50.07755 | 8.66620 | 2267 ft | 180 kts | 249° |
| 2026-05-05 19:40 | 50.07327 | 8.64836 | 1992 ft | 172 kts | 249° |
| 2026-05-05 19:40 | 50.06923 | 8.63139 | 1732 ft | 161 kts | 249° |
| 2026-05-05 19:41 | 50.06539 | 8.61508 | 1499 ft | 161 kts | 248° |
| 2026-05-05 19:41 | 50.06130 | 8.59830 | 1321 ft | 166 kts | 248° |
| 2026-05-05 19:41 | 50.05736 | 8.58196 | 1071 ft | 159 kts | 249° |
| 2026-05-05 19:41 | 50.05345 | 8.56566 | 839 ft | 160 kts | 248° |
| 2026-05-05 19:42 | 50.04962 | 8.54959 | 635 ft | 157 kts | 249° |
| 2026-05-05 19:42 | 50.04584 | 8.53375 | 402 ft | 153 kts | 249° |
| 2026-05-05 19:42 | 50.04266 | 8.52058 | 356 ft | 90 kts | 249° |
| 2026-05-05 19:42 | 50.04116 | 8.51426 | 337 ft | 44 kts | 249° |
| 2026-05-05 19:43 | 50.04030 | 8.51123 | 335 ft | 28 kts | 238° |
| 2026-05-05 19:43 | 50.03908 | 8.50918 | 330 ft | 17 kts | 221° |
| 2026-05-05 19:43 | 50.03839 | 8.50844 | 337 ft | 8 kts | 195° |
| 2026-05-05 19:43 | 50.03802 | 8.50855 | 351 ft | 3 kts | 147° |
| 2026-05-05 19:44 | 50.03790 | 8.50886 | 342 ft | 5 kts | 105° |
| 2026-05-05 19:44 | 50.03792 | 8.50951 | 343 ft | 9 kts | 76° |
| 2026-05-05 19:44 | 50.03808 | 8.51028 | 354 ft | 6 kts | 70° |
| 2026-05-05 19:44 | 50.03809 | 8.51031 | 350 ft | 0 kts | 70° |
| 2026-05-05 19:46 | 50.03810 | 8.51033 | 343 ft | 1 kts | 70° |
| 2026-05-05 19:46 | 50.03830 | 8.51124 | 352 ft | 19 kts | 71° |
| 2026-05-05 19:46 | 50.03886 | 8.51360 | 355 ft | 25 kts | 70° |
| 2026-05-05 19:46 | 50.03948 | 8.51619 | 350 ft | 26 kts | 69° |
| 2026-05-05 19:47 | 50.04014 | 8.51893 | 354 ft | 28 kts | 69° |
| 2026-05-05 19:47 | 50.04083 | 8.52180 | 359 ft | 29 kts | 69° |
| 2026-05-05 19:47 | 50.04153 | 8.52473 | 360 ft | 29 kts | 69° |
| 2026-05-05 19:47 | 50.04223 | 8.52767 | 363 ft | 29 kts | 70° |
| 2026-05-05 19:48 | 50.04296 | 8.53073 | 365 ft | 30 kts | 70° |
| 2026-05-05 19:48 | 50.04366 | 8.53366 | 381 ft | 28 kts | 69° |
| 2026-05-05 19:48 | 50.04404 | 8.53629 | 384 ft | 26 kts | 85° |
| 2026-05-05 19:48 | 50.04422 | 8.53918 | 384 ft | 27 kts | 84° |
| 2026-05-05 19:49 | 50.04443 | 8.54218 | 384 ft | 28 kts | 84° |
| 2026-05-05 19:49 | 50.04454 | 8.54402 | 380 ft | 25 kts | 89° |
| 2026-05-05 19:49 | 50.04372 | 8.54710 | 372 ft | 23 kts | 138° |
| 2026-05-05 19:49 | 50.04258 | 8.54805 | 366 ft | 19 kts | 159° |
| 2026-05-05 19:50 | 50.04119 | 8.54884 | 366 ft | 19 kts | 160° |
| 2026-05-05 19:50 | 50.03994 | 8.54956 | 367 ft | 20 kts | 159° |
| 2026-05-05 19:50 | 50.03878 | 8.55024 | 366 ft | 11 kts | 155° |
| 2026-05-05 19:50 | 50.03857 | 8.55143 | 363 ft | 14 kts | 73° |
| 2026-05-05 19:51 | 50.03897 | 8.55315 | 360 ft | 19 kts | 70° |
| 2026-05-05 19:51 | 50.03948 | 8.55526 | 359 ft | 22 kts | 69° |
| 2026-05-05 19:51 | 50.04002 | 8.55754 | 360 ft | 23 kts | 69° |
| 2026-05-05 19:51 | 50.04059 | 8.55992 | 361 ft | 24 kts | 69° |
| 2026-05-05 19:52 | 50.04117 | 8.56229 | 365 ft | 16 kts | 69° |
| 2026-05-05 19:52 | 50.04160 | 8.56410 | 367 ft | 16 kts | 70° |
| 2026-05-05 19:52 | 50.04196 | 8.56565 | 365 ft | 13 kts | 70° |
| 2026-05-05 19:52 | 50.04212 | 8.56633 | 369 ft | 0 kts | 70° |
| 2026-05-05 19:53 | 50.04212 | 8.56634 | 364 ft | 1 kts | 70° |
| 2026-05-05 19:53 | 50.04218 | 8.56659 | 371 ft | 4 kts | 70° |
| 2026-05-05 19:53 | 50.04236 | 8.56733 | 370 ft | 11 kts | 70° |
| 2026-05-05 19:53 | 50.04290 | 8.56809 | 368 ft | 12 kts | 11° |
| 2026-05-05 19:54 | 50.04385 | 8.56837 | 371 ft | 16 kts | 11° |
| 2026-05-05 19:54 | 50.04466 | 8.56861 | 370 ft | 4 kts | 13° |
| 2026-05-05 19:54 | 50.04502 | 8.56854 | 370 ft | 7 kts | 323° |
| 2026-05-05 19:54 | 50.04526 | 8.56803 | 371 ft | 6 kts | 295° |
| 2026-05-05 19:55 | 50.04538 | 8.56761 | 365 ft | 2 kts | 295° |
| 2026-05-05 19:55 | 50.04542 | 8.56750 | 364 ft | 0 kts | 295° |